Time;durP1;ratioP1;P1;durP2;ratioP2;P2;SDS_P1;SDS_P2;PMS_P1;PMS_P2;Temp;Humidity;BMP_temperature;BMP_pressure;BME280_temperature;BME280_humidity;BME280_pressure;Samples;Min_cycle;Max_cycle;Signal;HPM_P1;HPM_P2
2022/12/25 00:00:00;;;;;;;2.3;2.2;;;;;;;8.1;100.0;101260;;;;
2022/12/25 00:01:04;;;;;;;2.3;2.2;;;;;;;8.1;100.0;101260;;;;
2022/12/25 00:02:00;;;;;;;2.3;2.2;;;;;;;8.1;100.0;101250;;;;
2022/12/25 00:03:00;;;;;;;2.3;2.2;;;;;;;8.1;100.0;101250;;;;
2022/12/25 00:04:00;;;;;;;2.3;2.2;;;;;;;8.1;100.0;101260;;;;
2022/12/25 00:05:00;;;;;;;2.3;2.2;;;;;;;8.1;100.0;101260;;;;
2022/12/25 00:06:00;;;;;;;2.3;2.2;;;;;;;8.2;100.0;101250;;;;
2022/12/25 00:07:00;;;;;;;2.3;2.2;;;;;;;8.2;100.0;101250;;;;
2022/12/25 00:08:00;;;;;;;2.3;2.2;;;;;;;8.0;100.0;101250;;;;
2022/12/25 00:09:00;;;;;;;2.3;2.2;;;;;;;8.0;100.0;101250;;;;
2022/12/25 00:10:00;;;;;;;2.3;2.2;;;;;;;8.0;100.0;101240;;;;
2022/12/25 00:11:01;;;;;;;2.3;2.2;;;;;;;8.0;100.0;101240;;;;
2022/12/25 00:12:00;;;;;;;2.3;2.2;;;;;;;8.1;100.0;101240;;;;
2022/12/25 00:13:00;;;;;;;2.3;2.2;;;;;;;8.1;100.0;101240;;;;
2022/12/25 00:14:00;;;;;;;2.3;2.2;;;;;;;8.1;100.0;101240;;;;
2022/12/25 00:15:00;;;;;;;2.3;2.2;;;;;;;8.1;100.0;101240;;;;
2022/12/25 00:16:04;;;;;;;2.3;2.2;;;;;;;8.2;100.0;101250;;;;
2022/12/25 00:17:00;;;;;;;2.3;2.2;;;;;;;8.2;100.0;101250;;;;
2022/12/25 00:18:00;;;;;;;1.5;1.5;;;;;;;8.2;100.0;101250;;;;
2022/12/25 00:19:00;;;;;;;1.5;1.5;;;;;;;8.2;100.0;101250;;;;
2022/12/25 00:20:00;;;;;;;1.5;1.5;;;;;;;8.2;100.0;101250;;;;
2022/12/25 00:21:01;;;;;;;1.5;1.5;;;;;;;8.2;100.0;101250;;;;
2022/12/25 00:22:00;;;;;;;1.5;1.5;;;;;;;8.2;100.0;101250;;;;
2022/12/25 00:23:00;;;;;;;1.5;1.5;;;;;;;8.2;100.0;101250;;;;
2022/12/25 00:24:00;;;;;;;1.5;1.5;;;;;;;8.2;100.0;101260;;;;
2022/12/25 00:25:00;;;;;;;1.5;1.5;;;;;;;8.2;100.0;101260;;;;
2022/12/25 00:26:03;;;;;;;1.5;1.5;;;;;;;8.4;100.0;101240;;;;
2022/12/25 00:27:00;;;;;;;1.5;1.5;;;;;;;8.4;100.0;101240;;;;
2022/12/25 00:28:00;;;;;;;1.5;1.5;;;;;;;8.4;100.0;101240;;;;
2022/12/25 00:29:00;;;;;;;1.5;1.5;;;;;;;8.4;100.0;101240;;;;
2022/12/25 00:30:00;;;;;;;1.5;1.5;;;;;;;8.4;100.0;101240;;;;
2022/12/25 00:31:03;;;;;;;1.5;1.5;;;;;;;8.4;100.0;101240;;;;
2022/12/25 00:32:00;;;;;;;1.5;1.5;;;;;;;8.3;100.0;101250;;;;
2022/12/25 00:33:00;;;;;;;1.5;1.5;;;;;;;8.3;100.0;101250;;;;
2022/12/25 00:34:00;;;;;;;1.5;1.5;;;;;;;8.4;100.0;101240;;;;
2022/12/25 00:35:00;;;;;;;1.5;1.5;;;;;;;8.4;100.0;101240;;;;
2022/12/25 00:36:00;;;;;;;1.5;1.5;;;;;;;8.5;100.0;101240;;;;
2022/12/25 00:37:00;;;;;;;1.5;1.5;;;;;;;8.5;100.0;101240;;;;
2022/12/25 00:38:00;;;;;;;5.5;3.1;;;;;;;8.4;100.0;101240;;;;
2022/12/25 00:39:00;;;;;;;5.5;3.1;;;;;;;8.4;100.0;101240;;;;
2022/12/25 00:40:00;;;;;;;5.5;3.1;;;;;;;8.3;100.0;101240;;;;
2022/12/25 00:41:05;;;;;;;5.5;3.1;;;;;;;8.3;100.0;101240;;;;
2022/12/25 00:43:00;;;;;;;5.5;3.1;;;;;;;8.4;100.0;101240;;;;
2022/12/25 00:44:00;;;;;;;5.5;3.1;;;;;;;8.4;100.0;101240;;;;
2022/12/25 00:45:00;;;;;;;5.5;3.1;;;;;;;8.4;100.0;101240;;;;
2022/12/25 00:46:01;;;;;;;5.5;3.1;;;;;;;8.3;100.0;101230;;;;
2022/12/25 00:47:00;;;;;;;5.5;3.1;;;;;;;8.3;100.0;101230;;;;
2022/12/25 00:48:00;;;;;;;5.5;3.1;;;;;;;8.4;100.0;101240;;;;
2022/12/25 00:49:00;;;;;;;5.5;3.1;;;;;;;8.4;100.0;101240;;;;
2022/12/25 00:50:00;;;;;;;5.5;3.1;;;;;;;8.4;100.0;101240;;;;
2022/12/25 00:51:01;;;;;;;5.5;3.1;;;;;;;8.4;100.0;101240;;;;
2022/12/25 00:52:00;;;;;;;5.5;3.1;;;;;;;8.4;100.0;101230;;;;
2022/12/25 00:53:00;;;;;;;5.5;3.1;;;;;;;8.4;100.0;101230;;;;
2022/12/25 00:54:00;;;;;;;5.5;3.1;;;;;;;8.4;100.0;101230;;;;
2022/12/25 00:55:00;;;;;;;5.5;3.1;;;;;;;8.4;100.0;101230;;;;
2022/12/25 00:56:02;;;;;;;5.5;3.1;;;;;;;8.6;100.0;101230;;;;
2022/12/25 00:57:00;;;;;;;5.5;3.1;;;;;;;8.6;100.0;101230;;;;
2022/12/25 00:58:00;;;;;;;1.1;1.1;;;;;;;8.6;100.0;101240;;;;
2022/12/25 00:59:00;;;;;;;1.1;1.1;;;;;;;8.6;100.0;101240;;;;
2022/12/25 01:00:00;;;;;;;1.1;1.1;;;;;;;8.6;100.0;101240;;;;
2022/12/25 01:01:01;;;;;;;1.1;1.1;;;;;;;8.6;100.0;101240;;;;
2022/12/25 01:02:22;;;;;;;1.1;1.1;;;;;;;8.6;100.0;101240;;;;
2022/12/25 01:03:00;;;;;;;1.1;1.1;;;;;;;8.6;100.0;101240;;;;
2022/12/25 01:04:00;;;;;;;1.1;1.1;;;;;;;8.6;100.0;101230;;;;
2022/12/25 01:05:00;;;;;;;1.1;1.1;;;;;;;8.6;100.0;101230;;;;
2022/12/25 01:06:02;;;;;;;1.1;1.1;;;;;;;8.6;100.0;101230;;;;
2022/12/25 01:07:00;;;;;;;1.1;1.1;;;;;;;8.6;100.0;101230;;;;
2022/12/25 01:08:00;;;;;;;1.1;1.1;;;;;;;8.5;100.0;101220;;;;
2022/12/25 01:11:02;;;;;;;1.1;1.1;;;;;;;8.5;100.0;101220;;;;
2022/12/25 01:12:00;;;;;;;1.1;1.1;;;;;;;8.4;100.0;101230;;;;
2022/12/25 01:13:00;;;;;;;1.1;1.1;;;;;;;8.4;100.0;101230;;;;
2022/12/25 01:14:00;;;;;;;1.1;1.1;;;;;;;8.5;100.0;101220;;;;
2022/12/25 01:15:00;;;;;;;1.1;1.1;;;;;;;8.5;100.0;101220;;;;
2022/12/25 01:16:08;;;;;;;1.1;1.1;;;;;;;8.5;100.0;101230;;;;
2022/12/25 01:17:00;;;;;;;1.1;1.1;;;;;;;8.5;100.0;101230;;;;
2022/12/25 01:18:07;;;;;;;1.0;1.0;;;;;;;8.5;100.0;101230;;;;
2022/12/25 01:19:00;;;;;;;1.0;1.0;;;;;;;8.5;100.0;101230;;;;
2022/12/25 01:20:00;;;;;;;1.0;1.0;;;;;;;8.4;100.0;101220;;;;
2022/12/25 01:21:07;;;;;;;1.0;1.0;;;;;;;8.4;100.0;101220;;;;
2022/12/25 01:22:00;;;;;;;1.0;1.0;;;;;;;8.6;100.0;101230;;;;
2022/12/25 01:23:00;;;;;;;1.0;1.0;;;;;;;8.6;100.0;101230;;;;
2022/12/25 01:24:00;;;;;;;1.0;1.0;;;;;;;8.7;100.0;101230;;;;
2022/12/25 01:25:00;;;;;;;1.0;1.0;;;;;;;8.7;100.0;101230;;;;
2022/12/25 01:26:09;;;;;;;1.0;1.0;;;;;;;8.5;100.0;101230;;;;
2022/12/25 01:27:00;;;;;;;1.0;1.0;;;;;;;8.5;100.0;101230;;;;
2022/12/25 01:28:00;;;;;;;1.0;1.0;;;;;;;8.4;100.0;101230;;;;
2022/12/25 01:29:01;;;;;;;1.0;1.0;;;;;;;8.4;100.0;101230;;;;
2022/12/25 01:30:00;;;;;;;1.0;1.0;;;;;;;8.4;100.0;101230;;;;
2022/12/25 01:31:00;;;;;;;1.0;1.0;;;;;;;8.4;100.0;101230;;;;
2022/12/25 01:32:00;;;;;;;1.0;1.0;;;;;;;8.4;100.0;101230;;;;
2022/12/25 01:33:00;;;;;;;1.0;1.0;;;;;;;8.4;100.0;101230;;;;
2022/12/25 01:34:00;;;;;;;1.0;1.0;;;;;;;8.5;100.0;101240;;;;
2022/12/25 01:35:00;;;;;;;1.0;1.0;;;;;;;8.5;100.0;101240;;;;
2022/12/25 01:36:00;;;;;;;1.0;1.0;;;;;;;8.6;100.0;101240;;;;
2022/12/25 01:37:00;;;;;;;1.0;1.0;;;;;;;8.6;100.0;101240;;;;
2022/12/25 01:38:00;;;;;;;1.2;1.2;;;;;;;8.5;100.0;101250;;;;
2022/12/25 01:39:00;;;;;;;1.2;1.2;;;;;;;8.5;100.0;101250;;;;
2022/12/25 01:40:00;;;;;;;1.2;1.2;;;;;;;8.6;100.0;101250;;;;
2022/12/25 01:41:00;;;;;;;1.2;1.2;;;;;;;8.6;100.0;101250;;;;
2022/12/25 01:42:00;;;;;;;1.2;1.2;;;;;;;8.6;100.0;101250;;;;
2022/12/25 01:43:00;;;;;;;1.2;1.2;;;;;;;8.6;100.0;101250;;;;
2022/12/25 01:44:05;;;;;;;1.2;1.2;;;;;;;8.6;100.0;101250;;;;
2022/12/25 01:45:10;;;;;;;1.2;1.2;;;;;;;8.6;100.0;101250;;;;
2022/12/25 01:46:02;;;;;;;1.2;1.2;;;;;;;8.7;100.0;101250;;;;
2022/12/25 01:47:00;;;;;;;1.2;1.2;;;;;;;8.7;100.0;101250;;;;
2022/12/25 01:48:02;;;;;;;1.2;1.2;;;;;;;8.6;100.0;101250;;;;
2022/12/25 01:49:02;;;;;;;1.2;1.2;;;;;;;8.6;100.0;101250;;;;
2022/12/25 01:50:00;;;;;;;1.2;1.2;;;;;;;8.7;100.0;101240;;;;
2022/12/25 01:51:02;;;;;;;1.2;1.2;;;;;;;8.7;100.0;101240;;;;
2022/12/25 01:52:10;;;;;;;1.2;1.2;;;;;;;8.6;100.0;101240;;;;
2022/12/25 01:53:00;;;;;;;1.2;1.2;;;;;;;8.6;100.0;101240;;;;
2022/12/25 01:54:02;;;;;;;1.2;1.2;;;;;;;8.6;100.0;101240;;;;
2022/12/25 01:55:02;;;;;;;1.2;1.2;;;;;;;8.6;100.0;101240;;;;
2022/12/25 01:56:02;;;;;;;1.2;1.2;;;;;;;8.6;100.0;101250;;;;
2022/12/25 01:57:04;;;;;;;1.2;1.2;;;;;;;8.6;100.0;101250;;;;
2022/12/25 01:58:00;;;;;;;1.0;1.0;;;;;;;8.6;100.0;101250;;;;
2022/12/25 01:59:01;;;;;;;1.0;1.0;;;;;;;8.6;100.0;101250;;;;
2022/12/25 02:00:00;;;;;;;1.0;1.0;;;;;;;8.7;100.0;101250;;;;
2022/12/25 02:01:00;;;;;;;1.0;1.0;;;;;;;8.7;100.0;101250;;;;
2022/12/25 02:02:00;;;;;;;1.0;1.0;;;;;;;8.7;100.0;101260;;;;
2022/12/25 02:03:00;;;;;;;1.0;1.0;;;;;;;8.7;100.0;101260;;;;
2022/12/25 02:04:04;;;;;;;1.0;1.0;;;;;;;8.7;100.0;101260;;;;
2022/12/25 02:05:03;;;;;;;1.0;1.0;;;;;;;8.7;100.0;101260;;;;
2022/12/25 02:06:01;;;;;;;1.0;1.0;;;;;;;8.7;100.0;101260;;;;
2022/12/25 02:07:00;;;;;;;1.0;1.0;;;;;;;8.7;100.0;101260;;;;
2022/12/25 02:08:03;;;;;;;1.0;1.0;;;;;;;8.7;100.0;101270;;;;
2022/12/25 02:09:00;;;;;;;1.0;1.0;;;;;;;8.7;100.0;101270;;;;
2022/12/25 02:10:00;;;;;;;1.0;1.0;;;;;;;8.6;100.0;101270;;;;
2022/12/25 02:11:00;;;;;;;1.0;1.0;;;;;;;8.6;100.0;101270;;;;
2022/12/25 02:12:00;;;;;;;1.0;1.0;;;;;;;8.7;100.0;101260;;;;
2022/12/25 02:13:01;;;;;;;1.0;1.0;;;;;;;8.7;100.0;101260;;;;
2022/12/25 02:14:00;;;;;;;1.0;1.0;;;;;;;8.6;100.0;101260;;;;
2022/12/25 02:15:06;;;;;;;1.0;1.0;;;;;;;8.6;100.0;101260;;;;
2022/12/25 02:16:05;;;;;;;1.0;1.0;;;;;;;8.7;100.0;101260;;;;
2022/12/25 02:17:06;;;;;;;1.0;1.0;;;;;;;8.7;100.0;101260;;;;
2022/12/25 02:18:06;;;;;;;1.0;1.0;;;;;;;8.7;100.0;101260;;;;
2022/12/25 02:19:07;;;;;;;1.0;1.0;;;;;;;8.7;100.0;101260;;;;
2022/12/25 02:20:10;;;;;;;1.0;1.0;;;;;;;8.7;100.0;101260;;;;
2022/12/25 02:21:10;;;;;;;1.0;1.0;;;;;;;8.7;100.0;101260;;;;
2022/12/25 02:22:07;;;;;;;1.0;1.0;;;;;;;8.8;100.0;101260;;;;
2022/12/25 02:23:10;;;;;;;1.0;1.0;;;;;;;8.8;100.0;101260;;;;
2022/12/25 02:24:08;;;;;;;1.0;1.0;;;;;;;8.8;100.0;101260;;;;
2022/12/25 02:25:10;;;;;;;1.0;1.0;;;;;;;8.8;100.0;101260;;;;
2022/12/25 02:26:09;;;;;;;1.0;1.0;;;;;;;8.8;100.0;101270;;;;
2022/12/25 02:27:03;;;;;;;1.0;1.0;;;;;;;8.8;100.0;101270;;;;
2022/12/25 02:28:07;;;;;;;1.0;1.0;;;;;;;8.7;100.0;101270;;;;
2022/12/25 02:29:04;;;;;;;1.0;1.0;;;;;;;8.7;100.0;101270;;;;
2022/12/25 02:30:03;;;;;;;1.0;1.0;;;;;;;8.6;100.0;101270;;;;
2022/12/25 02:31:04;;;;;;;1.0;1.0;;;;;;;8.6;100.0;101270;;;;
2022/12/25 02:32:04;;;;;;;1.0;1.0;;;;;;;8.8;100.0;101270;;;;
2022/12/25 02:34:10;;;;;;;1.0;1.0;;;;;;;8.7;100.0;101270;;;;
2022/12/25 02:35:05;;;;;;;1.0;1.0;;;;;;;8.7;100.0;101270;;;;
2022/12/25 02:36:03;;;;;;;1.0;1.0;;;;;;;8.7;100.0;101270;;;;
2022/12/25 02:37:05;;;;;;;1.1;1.1;;;;;;;8.7;100.0;101270;;;;
2022/12/25 02:38:03;;;;;;;1.1;1.1;;;;;;;8.8;100.0;101270;;;;
2022/12/25 02:40:06;;;;;;;1.1;1.1;;;;;;;8.8;100.0;101260;;;;
2022/12/25 02:41:03;;;;;;;1.1;1.1;;;;;;;8.8;100.0;101260;;;;
2022/12/25 02:42:03;;;;;;;1.1;1.1;;;;;;;8.7;100.0;101260;;;;
2022/12/25 03:07:10;;;;;;;1.0;1.0;;;;;;;8.9;100.0;101220;;;;
2022/12/25 03:08:02;;;;;;;1.0;1.0;;;;;;;8.8;100.0;101220;;;;
2022/12/25 03:11:29;;;;;;;1.0;1.0;;;;;;;8.8;100.0;101220;;;;
2022/12/25 03:12:07;;;;;;;1.0;1.0;;;;;;;8.8;100.0;101210;;;;
2022/12/25 03:13:00;;;;;;;1.0;1.0;;;;;;;8.8;100.0;101210;;;;
2022/12/25 03:17:00;;;;;;;1.6;1.5;;;;;;;8.6;100.0;101190;;;;
2022/12/25 03:18:02;;;;;;;1.6;1.5;;;;;;;8.6;100.0;101170;;;;
2022/12/25 03:26:53;;;;;;;1.6;1.5;;;;;;;8.6;100.0;101170;;;;
2022/12/25 03:27:00;;;;;;;1.6;1.5;;;;;;;8.4;100.0;101160;;;;
2022/12/25 03:28:00;;;;;;;1.6;1.5;;;;;;;8.5;100.0;101160;;;;
2022/12/25 03:29:00;;;;;;;1.6;1.5;;;;;;;8.5;100.0;101160;;;;
2022/12/25 03:31:10;;;;;;;1.6;1.5;;;;;;;8.4;100.0;101160;;;;
2022/12/25 03:32:10;;;;;;;1.6;1.5;;;;;;;8.3;100.0;101160;;;;
2022/12/25 03:33:09;;;;;;;1.6;1.5;;;;;;;8.3;100.0;101160;;;;
2022/12/25 03:36:07;;;;;;;1.6;1.5;;;;;;;8.3;100.0;101160;;;;
2022/12/25 03:39:38;;;;;;;2.3;2.2;;;;;;;8.2;100.0;101150;;;;
2022/12/25 04:37:00;;;;;;;1.0;1.0;;;;;;;8.1;100.0;101150;;;;
2022/12/25 04:38:00;;;;;;;1.0;1.0;;;;;;;8.0;100.0;101160;;;;
2022/12/25 04:39:00;;;;;;;1.0;1.0;;;;;;;8.0;100.0;101160;;;;
2022/12/25 04:40:00;;;;;;;1.0;1.0;;;;;;;8.0;100.0;101150;;;;
2022/12/25 04:41:00;;;;;;;1.0;1.0;;;;;;;8.0;100.0;101150;;;;
2022/12/25 04:42:00;;;;;;;1.0;1.0;;;;;;;7.9;100.0;101160;;;;
2022/12/25 04:43:00;;;;;;;1.0;1.0;;;;;;;7.9;100.0;101160;;;;
2022/12/25 04:44:00;;;;;;;1.0;1.0;;;;;;;7.9;100.0;101160;;;;
2022/12/25 04:45:00;;;;;;;1.0;1.0;;;;;;;7.9;100.0;101160;;;;
2022/12/25 04:46:01;;;;;;;1.0;1.0;;;;;;;8.0;100.0;101160;;;;
2022/12/25 04:47:05;;;;;;;1.0;1.0;;;;;;;8.0;100.0;101160;;;;
2022/12/25 04:48:00;;;;;;;1.0;1.0;;;;;;;8.0;100.0;101160;;;;
2022/12/25 04:49:00;;;;;;;1.0;1.0;;;;;;;8.0;100.0;101160;;;;
2022/12/25 04:50:00;;;;;;;1.0;1.0;;;;;;;7.9;100.0;101160;;;;
2022/12/25 04:51:10;;;;;;;1.0;1.0;;;;;;;7.9;100.0;101160;;;;
2022/12/25 04:52:00;;;;;;;1.0;1.0;;;;;;;7.8;100.0;101160;;;;
2022/12/25 04:53:00;;;;;;;1.0;1.0;;;;;;;7.8;100.0;101160;;;;
2022/12/25 04:54:00;;;;;;;1.0;1.0;;;;;;;7.9;100.0;101160;;;;
2022/12/25 04:55:00;;;;;;;1.0;1.0;;;;;;;7.9;100.0;101160;;;;
2022/12/25 04:56:01;;;;;;;1.0;1.0;;;;;;;7.8;100.0;101140;;;;
2022/12/25 04:57:00;;;;;;;1.1;1.1;;;;;;;7.8;100.0;101140;;;;
2022/12/25 04:58:00;;;;;;;1.1;1.1;;;;;;;7.8;100.0;101150;;;;
2022/12/25 04:59:00;;;;;;;1.1;1.1;;;;;;;7.8;100.0;101150;;;;
2022/12/25 05:00:00;;;;;;;1.1;1.1;;;;;;;7.8;100.0;101150;;;;
2022/12/25 05:01:01;;;;;;;1.1;1.1;;;;;;;7.8;100.0;101150;;;;
2022/12/25 05:02:01;;;;;;;1.1;1.1;;;;;;;7.8;100.0;101140;;;;
2022/12/25 05:03:00;;;;;;;1.1;1.1;;;;;;;7.8;100.0;101140;;;;
2022/12/25 05:04:00;;;;;;;1.1;1.1;;;;;;;7.8;100.0;101140;;;;
2022/12/25 05:05:00;;;;;;;1.1;1.1;;;;;;;7.8;100.0;101140;;;;
2022/12/25 05:06:00;;;;;;;1.1;1.1;;;;;;;7.7;100.0;101140;;;;
2022/12/25 05:07:00;;;;;;;1.1;1.1;;;;;;;7.7;100.0;101140;;;;
2022/12/25 05:08:00;;;;;;;1.1;1.1;;;;;;;7.6;100.0;101150;;;;
2022/12/25 05:09:00;;;;;;;1.1;1.1;;;;;;;7.6;100.0;101150;;;;
2022/12/25 05:10:00;;;;;;;1.1;1.1;;;;;;;7.7;100.0;101140;;;;
2022/12/25 05:11:04;;;;;;;1.1;1.1;;;;;;;7.7;100.0;101140;;;;
2022/12/25 05:12:00;;;;;;;1.1;1.1;;;;;;;7.6;100.0;101140;;;;
2022/12/25 05:13:00;;;;;;;1.1;1.1;;;;;;;7.6;100.0;101140;;;;
2022/12/25 05:14:00;;;;;;;1.1;1.1;;;;;;;7.6;100.0;101140;;;;
2022/12/25 05:15:00;;;;;;;1.1;1.1;;;;;;;7.6;100.0;101140;;;;
2022/12/25 05:16:03;;;;;;;1.1;1.1;;;;;;;7.6;100.0;101140;;;;
2022/12/25 05:17:00;;;;;;;1.2;1.2;;;;;;;7.6;100.0;101140;;;;
2022/12/25 05:18:00;;;;;;;1.2;1.2;;;;;;;7.6;100.0;101140;;;;
2022/12/25 05:19:00;;;;;;;1.2;1.2;;;;;;;7.6;100.0;101140;;;;
2022/12/25 05:20:00;;;;;;;1.2;1.2;;;;;;;7.6;100.0;101140;;;;
2022/12/25 05:21:00;;;;;;;1.2;1.2;;;;;;;7.6;100.0;101140;;;;
2022/12/25 05:22:00;;;;;;;1.2;1.2;;;;;;;7.5;100.0;101140;;;;
2022/12/25 05:23:00;;;;;;;1.2;1.2;;;;;;;7.5;100.0;101140;;;;
2022/12/25 05:24:00;;;;;;;1.2;1.2;;;;;;;7.5;100.0;101140;;;;
2022/12/25 05:25:00;;;;;;;1.2;1.2;;;;;;;7.5;100.0;101140;;;;
2022/12/25 05:26:04;;;;;;;1.2;1.2;;;;;;;7.6;100.0;101130;;;;
2022/12/25 05:27:00;;;;;;;1.2;1.2;;;;;;;7.6;100.0;101130;;;;
2022/12/25 05:28:00;;;;;;;1.2;1.2;;;;;;;7.4;100.0;101130;;;;
2022/12/25 05:29:00;;;;;;;1.2;1.2;;;;;;;7.4;100.0;101130;;;;
2022/12/25 05:30:00;;;;;;;1.2;1.2;;;;;;;7.4;100.0;101130;;;;
2022/12/25 05:31:00;;;;;;;1.2;1.2;;;;;;;7.4;100.0;101130;;;;
2022/12/25 05:32:00;;;;;;;1.2;1.2;;;;;;;7.3;100.0;101140;;;;
2022/12/25 05:33:00;;;;;;;1.2;1.2;;;;;;;7.3;100.0;101140;;;;
2022/12/25 05:34:00;;;;;;;1.2;1.2;;;;;;;7.3;100.0;101130;;;;
2022/12/25 05:35:00;;;;;;;1.2;1.2;;;;;;;7.3;100.0;101130;;;;
2022/12/25 05:36:02;;;;;;;1.2;1.2;;;;;;;7.5;100.0;101120;;;;
2022/12/25 05:37:00;;;;;;;1.2;1.2;;;;;;;7.5;100.0;101120;;;;
2022/12/25 05:38:00;;;;;;;1.2;1.2;;;;;;;7.7;100.0;101120;;;;
2022/12/25 05:39:00;;;;;;;1.2;1.2;;;;;;;7.7;100.0;101120;;;;
2022/12/25 05:40:00;;;;;;;1.2;1.2;;;;;;;7.5;100.0;101130;;;;
2022/12/25 05:41:00;;;;;;;1.2;1.2;;;;;;;7.5;100.0;101130;;;;
2022/12/25 05:42:00;;;;;;;1.2;1.2;;;;;;;7.4;100.0;101120;;;;
2022/12/25 05:43:00;;;;;;;1.2;1.2;;;;;;;7.4;100.0;101120;;;;
2022/12/25 05:44:00;;;;;;;1.2;1.2;;;;;;;7.6;100.0;101110;;;;
2022/12/25 05:45:00;;;;;;;1.2;1.2;;;;;;;7.6;100.0;101110;;;;
2022/12/25 05:46:05;;;;;;;1.2;1.2;;;;;;;7.7;100.0;101110;;;;
2022/12/25 05:47:00;;;;;;;1.2;1.2;;;;;;;7.7;100.0;101110;;;;
2022/12/25 05:48:00;;;;;;;1.2;1.2;;;;;;;7.6;100.0;101110;;;;
2022/12/25 05:49:00;;;;;;;1.2;1.2;;;;;;;7.6;100.0;101110;;;;
2022/12/25 05:50:00;;;;;;;1.2;1.2;;;;;;;7.5;100.0;101110;;;;
2022/12/25 05:51:04;;;;;;;1.2;1.2;;;;;;;7.5;100.0;101110;;;;
2022/12/25 05:52:00;;;;;;;1.2;1.2;;;;;;;7.6;100.0;101110;;;;
2022/12/25 05:53:08;;;;;;;1.2;1.2;;;;;;;7.6;100.0;101110;;;;
2022/12/25 05:54:00;;;;;;;1.2;1.2;;;;;;;7.5;100.0;101110;;;;
2022/12/25 05:55:00;;;;;;;1.2;1.2;;;;;;;7.5;100.0;101110;;;;
2022/12/25 05:56:02;;;;;;;1.2;1.2;;;;;;;7.6;100.0;101110;;;;
2022/12/25 05:57:00;;;;;;;1.2;1.2;;;;;;;7.6;100.0;101110;;;;
2022/12/25 05:58:00;;;;;;;1.2;1.2;;;;;;;7.8;100.0;101120;;;;
2022/12/25 05:59:00;;;;;;;1.2;1.2;;;;;;;7.8;100.0;101120;;;;
2022/12/25 06:00:00;;;;;;;1.2;1.2;;;;;;;7.8;100.0;101120;;;;
2022/12/25 06:01:00;;;;;;;1.2;1.2;;;;;;;7.8;100.0;101120;;;;
2022/12/25 06:02:00;;;;;;;1.2;1.2;;;;;;;7.9;100.0;101120;;;;
2022/12/25 06:03:00;;;;;;;1.2;1.2;;;;;;;7.9;100.0;101120;;;;
2022/12/25 06:04:00;;;;;;;1.2;1.2;;;;;;;7.9;100.0;101120;;;;
2022/12/25 06:05:00;;;;;;;1.2;1.2;;;;;;;7.9;100.0;101120;;;;
2022/12/25 06:06:01;;;;;;;1.2;1.2;;;;;;;7.9;100.0;101110;;;;
2022/12/25 06:07:00;;;;;;;1.2;1.2;;;;;;;7.9;100.0;101110;;;;
2022/12/25 06:08:00;;;;;;;1.2;1.2;;;;;;;7.9;100.0;101100;;;;
2022/12/25 06:09:00;;;;;;;1.2;1.2;;;;;;;7.9;100.0;101100;;;;
2022/12/25 06:10:00;;;;;;;1.2;1.2;;;;;;;8.1;100.0;101100;;;;
2022/12/25 06:11:02;;;;;;;1.2;1.2;;;;;;;8.1;100.0;101100;;;;
2022/12/25 06:12:00;;;;;;;1.2;1.2;;;;;;;8.0;100.0;101090;;;;
2022/12/25 06:13:00;;;;;;;1.2;1.2;;;;;;;8.0;100.0;101090;;;;
2022/12/25 06:14:00;;;;;;;1.2;1.2;;;;;;;7.9;100.0;101090;;;;
2022/12/25 06:15:00;;;;;;;1.2;1.2;;;;;;;7.9;100.0;101090;;;;
2022/12/25 06:16:04;;;;;;;1.2;1.2;;;;;;;8.0;100.0;101090;;;;
2022/12/25 06:17:00;;;;;;;1.3;1.3;;;;;;;8.0;100.0;101090;;;;
2022/12/25 06:18:00;;;;;;;1.3;1.3;;;;;;;7.9;100.0;101090;;;;
2022/12/25 06:19:00;;;;;;;1.3;1.3;;;;;;;7.9;100.0;101090;;;;
2022/12/25 06:20:00;;;;;;;1.3;1.3;;;;;;;8.1;100.0;101100;;;;
2022/12/25 06:21:00;;;;;;;1.3;1.3;;;;;;;8.1;100.0;101100;;;;
2022/12/25 06:22:00;;;;;;;1.3;1.3;;;;;;;8.1;100.0;101100;;;;
2022/12/25 06:23:00;;;;;;;1.3;1.3;;;;;;;8.1;100.0;101100;;;;
2022/12/25 06:24:00;;;;;;;1.3;1.3;;;;;;;7.9;100.0;101100;;;;
2022/12/25 06:25:00;;;;;;;1.3;1.3;;;;;;;7.9;100.0;101100;;;;
2022/12/25 06:26:01;;;;;;;1.3;1.3;;;;;;;8.1;100.0;101090;;;;
2022/12/25 06:27:00;;;;;;;1.3;1.3;;;;;;;8.1;100.0;101090;;;;
2022/12/25 06:28:00;;;;;;;1.3;1.3;;;;;;;8.2;100.0;101090;;;;
2022/12/25 06:29:00;;;;;;;1.3;1.3;;;;;;;8.2;100.0;101090;;;;
2022/12/25 06:30:00;;;;;;;1.3;1.3;;;;;;;8.2;100.0;101090;;;;
2022/12/25 06:31:08;;;;;;;1.3;1.3;;;;;;;8.2;100.0;101090;;;;
2022/12/25 06:32:00;;;;;;;1.3;1.3;;;;;;;8.2;100.0;101070;;;;
2022/12/25 06:33:00;;;;;;;1.3;1.3;;;;;;;8.2;100.0;101070;;;;
2022/12/25 06:34:00;;;;;;;1.3;1.3;;;;;;;8.3;100.0;101070;;;;
2022/12/25 06:35:00;;;;;;;1.3;1.3;;;;;;;8.3;100.0;101070;;;;
2022/12/25 06:36:04;;;;;;;1.3;1.3;;;;;;;8.1;100.0;101070;;;;
2022/12/25 06:37:00;;;;;;;1.1;1.1;;;;;;;8.1;100.0;101070;;;;
2022/12/25 06:38:00;;;;;;;1.1;1.1;;;;;;;8.2;100.0;101070;;;;
2022/12/25 06:39:00;;;;;;;1.1;1.1;;;;;;;8.2;100.0;101070;;;;
2022/12/25 06:40:00;;;;;;;1.1;1.1;;;;;;;8.3;100.0;101070;;;;
2022/12/25 06:41:04;;;;;;;1.1;1.1;;;;;;;8.3;100.0;101070;;;;
2022/12/25 06:42:00;;;;;;;1.1;1.1;;;;;;;8.4;100.0;101060;;;;
2022/12/25 06:43:00;;;;;;;1.1;1.1;;;;;;;8.4;100.0;101060;;;;
2022/12/25 06:44:01;;;;;;;1.1;1.1;;;;;;;8.4;100.0;101060;;;;
2022/12/25 06:45:00;;;;;;;1.1;1.1;;;;;;;8.4;100.0;101060;;;;
2022/12/25 06:46:02;;;;;;;1.1;1.1;;;;;;;8.3;100.0;101050;;;;
2022/12/25 06:47:00;;;;;;;1.1;1.1;;;;;;;8.3;100.0;101050;;;;
2022/12/25 06:48:00;;;;;;;1.1;1.1;;;;;;;8.3;100.0;101040;;;;
2022/12/25 06:49:00;;;;;;;1.1;1.1;;;;;;;8.3;100.0;101040;;;;
2022/12/25 06:50:00;;;;;;;1.1;1.1;;;;;;;8.2;100.0;101040;;;;
2022/12/25 06:51:00;;;;;;;1.1;1.1;;;;;;;8.2;100.0;101040;;;;
2022/12/25 06:52:00;;;;;;;1.1;1.1;;;;;;;8.4;100.0;101030;;;;
2022/12/25 06:53:00;;;;;;;1.1;1.1;;;;;;;8.4;100.0;101030;;;;
2022/12/25 06:54:02;;;;;;;1.1;1.1;;;;;;;8.4;100.0;101030;;;;
2022/12/25 06:55:00;;;;;;;1.1;1.1;;;;;;;8.4;100.0;101030;;;;
2022/12/25 06:56:02;;;;;;;1.1;1.1;;;;;;;8.4;100.0;101040;;;;
2022/12/25 06:57:00;;;;;;;1.1;1.1;;;;;;;8.4;100.0;101040;;;;
2022/12/25 06:58:00;;;;;;;1.1;1.1;;;;;;;8.4;100.0;101040;;;;
2022/12/25 06:59:01;;;;;;;1.1;1.1;;;;;;;8.4;100.0;101040;;;;
2022/12/25 07:00:00;;;;;;;1.1;1.1;;;;;;;8.4;100.0;101030;;;;
2022/12/25 07:01:04;;;;;;;1.1;1.1;;;;;;;8.4;100.0;101030;;;;
2022/12/25 07:02:01;;;;;;;1.1;1.1;;;;;;;8.4;100.0;101020;;;;
2022/12/25 07:03:00;;;;;;;1.1;1.1;;;;;;;8.4;100.0;101020;;;;
2022/12/25 07:04:02;;;;;;;1.1;1.1;;;;;;;8.4;100.0;101000;;;;
2022/12/25 07:05:00;;;;;;;1.1;1.1;;;;;;;8.4;100.0;101000;;;;
2022/12/25 07:06:00;;;;;;;1.1;1.1;;;;;;;8.6;100.0;101000;;;;
2022/12/25 07:07:08;;;;;;;1.1;1.1;;;;;;;8.6;100.0;101000;;;;
2022/12/25 07:08:00;;;;;;;1.1;1.1;;;;;;;8.5;100.0;101000;;;;
2022/12/25 07:09:00;;;;;;;1.1;1.1;;;;;;;8.5;100.0;101000;;;;
2022/12/25 07:10:00;;;;;;;1.1;1.1;;;;;;;8.6;100.0;101010;;;;
2022/12/25 07:11:00;;;;;;;1.1;1.1;;;;;;;8.6;100.0;101010;;;;
2022/12/25 07:12:05;;;;;;;1.1;1.1;;;;;;;8.6;100.0;101010;;;;
2022/12/25 07:13:00;;;;;;;1.1;1.1;;;;;;;8.6;100.0;101010;;;;
2022/12/25 07:14:00;;;;;;;1.1;1.1;;;;;;;8.7;100.0;101010;;;;
2022/12/25 07:15:00;;;;;;;1.1;1.1;;;;;;;8.7;100.0;101010;;;;
2022/12/25 07:16:01;;;;;;;0.9;0.9;;;;;;;8.6;100.0;101020;;;;
2022/12/25 07:17:00;;;;;;;0.9;0.9;;;;;;;8.6;100.0;101020;;;;
2022/12/25 07:18:00;;;;;;;0.9;0.9;;;;;;;8.6;100.0;101020;;;;
2022/12/25 07:19:00;;;;;;;0.9;0.9;;;;;;;8.6;100.0;101020;;;;
2022/12/25 07:20:00;;;;;;;0.9;0.9;;;;;;;8.5;100.0;101020;;;;
2022/12/25 07:21:08;;;;;;;0.9;0.9;;;;;;;8.5;100.0;101020;;;;
2022/12/25 07:22:00;;;;;;;0.9;0.9;;;;;;;8.6;100.0;101030;;;;
2022/12/25 07:23:00;;;;;;;0.9;0.9;;;;;;;8.6;100.0;101030;;;;
2022/12/25 07:24:00;;;;;;;0.9;0.9;;;;;;;8.6;100.0;101030;;;;
2022/12/25 07:25:00;;;;;;;0.9;0.9;;;;;;;8.6;100.0;101030;;;;
2022/12/25 07:26:00;;;;;;;0.9;0.9;;;;;;;8.6;100.0;101040;;;;
2022/12/25 07:27:00;;;;;;;0.9;0.9;;;;;;;8.6;100.0;101040;;;;
2022/12/25 07:28:00;;;;;;;0.9;0.9;;;;;;;8.5;100.0;101040;;;;
2022/12/25 07:29:00;;;;;;;0.9;0.9;;;;;;;8.5;100.0;101040;;;;
2022/12/25 07:30:00;;;;;;;0.9;0.9;;;;;;;8.6;100.0;101040;;;;
2022/12/25 07:31:02;;;;;;;0.9;0.9;;;;;;;8.6;100.0;101040;;;;
2022/12/25 07:32:00;;;;;;;0.9;0.9;;;;;;;8.7;100.0;101050;;;;
2022/12/25 07:33:00;;;;;;;0.9;0.9;;;;;;;8.7;100.0;101050;;;;
2022/12/25 07:34:00;;;;;;;0.9;0.9;;;;;;;8.7;100.0;101050;;;;
2022/12/25 07:35:00;;;;;;;0.9;0.9;;;;;;;8.7;100.0;101050;;;;
2022/12/25 07:36:00;;;;;;;0.9;0.9;;;;;;;8.6;100.0;101050;;;;
2022/12/25 07:37:00;;;;;;;0.9;0.9;;;;;;;8.6;100.0;101050;;;;
2022/12/25 07:38:00;;;;;;;0.9;0.9;;;;;;;8.7;100.0;101050;;;;
2022/12/25 07:39:00;;;;;;;0.9;0.9;;;;;;;8.7;100.0;101050;;;;
2022/12/25 07:40:00;;;;;;;0.9;0.9;;;;;;;8.6;100.0;101050;;;;
2022/12/25 07:41:00;;;;;;;0.9;0.9;;;;;;;8.6;100.0;101050;;;;
2022/12/25 07:42:01;;;;;;;0.9;0.9;;;;;;;8.6;100.0;101060;;;;
2022/12/25 07:43:00;;;;;;;0.9;0.9;;;;;;;8.6;100.0;101060;;;;
2022/12/25 07:44:00;;;;;;;0.9;0.9;;;;;;;8.6;100.0;101050;;;;
2022/12/25 07:45:00;;;;;;;0.9;0.9;;;;;;;8.6;100.0;101050;;;;
2022/12/25 07:46:00;;;;;;;0.9;0.9;;;;;;;8.6;100.0;101050;;;;
2022/12/25 07:47:00;;;;;;;0.9;0.9;;;;;;;8.6;100.0;101050;;;;
2022/12/25 07:48:05;;;;;;;0.9;0.9;;;;;;;8.5;100.0;101040;;;;
2022/12/25 07:49:00;;;;;;;0.9;0.9;;;;;;;8.5;100.0;101040;;;;
2022/12/25 07:50:00;;;;;;;0.9;0.9;;;;;;;8.6;100.0;101030;;;;
2022/12/25 07:51:02;;;;;;;0.9;0.9;;;;;;;8.6;100.0;101030;;;;
2022/12/25 07:52:00;;;;;;;0.9;0.9;;;;;;;8.7;100.0;101010;;;;
2022/12/25 07:53:00;;;;;;;0.9;0.9;;;;;;;8.7;100.0;101010;;;;
2022/12/25 07:54:00;;;;;;;0.9;0.9;;;;;;;8.7;100.0;101000;;;;
2022/12/25 07:55:00;;;;;;;0.9;0.9;;;;;;;8.7;100.0;101000;;;;
2022/12/25 07:56:03;;;;;;;1.1;1.1;;;;;;;8.8;100.0;101010;;;;
2022/12/25 07:57:00;;;;;;;1.1;1.1;;;;;;;8.8;100.0;101010;;;;
2022/12/25 07:58:00;;;;;;;1.1;1.1;;;;;;;8.8;100.0;101020;;;;
2022/12/25 07:59:00;;;;;;;1.1;1.1;;;;;;;8.8;100.0;101020;;;;
2022/12/25 08:00:00;;;;;;;1.1;1.1;;;;;;;8.7;100.0;101030;;;;
2022/12/25 08:01:01;;;;;;;1.1;1.1;;;;;;;8.7;100.0;101030;;;;
2022/12/25 08:02:00;;;;;;;1.1;1.1;;;;;;;8.6;100.0;101030;;;;
2022/12/25 08:03:00;;;;;;;1.1;1.1;;;;;;;8.6;100.0;101030;;;;
2022/12/25 08:04:01;;;;;;;1.1;1.1;;;;;;;8.6;100.0;101050;;;;
2022/12/25 08:05:00;;;;;;;1.1;1.1;;;;;;;8.6;100.0;101050;;;;
2022/12/25 08:06:00;;;;;;;1.1;1.1;;;;;;;8.7;100.0;101070;;;;
2022/12/25 08:07:00;;;;;;;1.1;1.1;;;;;;;8.7;100.0;101070;;;;
2022/12/25 08:08:00;;;;;;;1.1;1.1;;;;;;;8.8;100.0;101070;;;;
2022/12/25 08:09:03;;;;;;;1.1;1.1;;;;;;;8.8;100.0;101070;;;;
2022/12/25 08:10:01;;;;;;;1.1;1.1;;;;;;;8.7;100.0;101070;;;;
2022/12/25 08:11:00;;;;;;;1.1;1.1;;;;;;;8.7;100.0;101070;;;;
2022/12/25 08:12:00;;;;;;;1.1;1.1;;;;;;;8.6;100.0;101070;;;;